Wilson Clyde — 8PRV — position and weather

sailwx.info

Track history (hours):
 
Tides and Currents Weather Stations Pressure Air Temp Water Temp Dewpoint Dewpoint Depression Visibility Wind Speed Wind Dir Waves Ship Positions

Wilson Clyde

Last reported at 2016-Dec-05 06:30 UTC. Time now 2016-Dec-10 09:02 UTC.
Position N 54°52' W 005°26'.

Length 100 m; draft 5.7 m.

Type: Cargo ship. MMSI: 314187000.

Date/timePositionNaut miles runAvg speedWind from/ knotsBaromVisibWave heightAir tempDewpointWater temp
2016-Dec-05 06:30N 54°52' W 005°26'1212.5
2016-Dec-05 05:33N 54°42' W 005°15'1211.3
2016-Dec-05 04:32N 54°31' W 005°10'1111.2
2016-Dec-05 03:33N 54°20' W 005°12'1110.7
2016-Dec-05 02:33N 54°10' W 005°14'  
2016-Dec-02 13:33N 44°46' W 008°59'1110.9
2016-Dec-02 12:33N 44°36' W 009°06'32510.8
2016-Dec-01 06:33N 39°13' W 009°51'1110.9
2016-Dec-01 05:33N 39°03' W 009°51'1110.7
2016-Dec-01 04:33N 38°52' W 009°51'1110.8
2016-Dec-01 03:33N 38°41' W 009°50'1111.1
2016-Dec-01 02:33N 38°30' W 009°47'1110.5
2016-Dec-01 01:30N 38°20' W 009°44'1010.1
2016-Dec-01 00:33N 38°10' W 009°42'2110.4
2016-Nov-30 22:33N 37°50' W 009°36'1110.7
2016-Nov-30 21:33N 37°39' W 009°33'222 9.6
2016-Nov-29 22:23N 36°00' W 005°24'8 9.2
2016-Nov-29 21:33N 35°54' W 005°19'0 0.5
2016-Nov-29 20:31N 35°54' W 005°19'0 0.0
2016-Nov-29 19:31N 35°54' W 005°19'0 0.0
2016-Nov-29 18:31N 35°54' W 005°19'0 0.0
2016-Nov-29 17:31N 35°54' W 005°19'0 0.0
2016-Nov-29 16:31N 35°54' W 005°19'0 0.5
2016-Nov-29 15:33N 35°54' W 005°19'  
Track history (hours):
 
Tides and Currents Weather Stations Pressure Air Temp Water Temp Dewpoint Dewpoint Depression Visibility Wind Speed Wind Dir Waves Ship Positions

Wilson Clyde

Last reported at 2016-Dec-05 06:30 UTC. Time now 2016-Dec-10 09:02 UTC.
Position N 54°52' W 005°26'.

Length 100 m; draft 5.7 m.

Type: Cargo ship. MMSI: 314187000.

Date/timePositionNaut miles runAvg speedWind from/ knotsBaromVisibWave heightAir tempDewpointWater temp
2016-Dec-05 06:30N 54°52' W 005°26'1212.5
2016-Dec-05 05:33N 54°42' W 005°15'1211.3
2016-Dec-05 04:32N 54°31' W 005°10'1111.2
2016-Dec-05 03:33N 54°20' W 005°12'1110.7
2016-Dec-05 02:33N 54°10' W 005°14'  
2016-Dec-02 13:33N 44°46' W 008°59'1110.9
2016-Dec-02 12:33N 44°36' W 009°06'32510.8
2016-Dec-01 06:33N 39°13' W 009°51'1110.9
2016-Dec-01 05:33N 39°03' W 009°51'1110.7
2016-Dec-01 04:33N 38°52' W 009°51'1110.8
2016-Dec-01 03:33N 38°41' W 009°50'1111.1
2016-Dec-01 02:33N 38°30' W 009°47'1110.5
2016-Dec-01 01:30N 38°20' W 009°44'1010.1
2016-Dec-01 00:33N 38°10' W 009°42'2110.4
2016-Nov-30 22:33N 37°50' W 009°36'1110.7
2016-Nov-30 21:33N 37°39' W 009°33'222 9.6
2016-Nov-29 22:23N 36°00' W 005°24'8 9.2
2016-Nov-29 21:33N 35°54' W 005°19'0 0.5
2016-Nov-29 20:31N 35°54' W 005°19'0 0.0
2016-Nov-29 19:31N 35°54' W 005°19'0 0.0
2016-Nov-29 18:31N 35°54' W 005°19'0 0.0
2016-Nov-29 17:31N 35°54' W 005°19'0 0.0
2016-Nov-29 16:31N 35°54' W 005°19'0 0.5
2016-Nov-29 15:33N 35°54' W 005°19'  

Dump ship's entire track history